createdAt,value
2017-06-04T00:00:47.909Z,0
2017-06-04T00:01:49.142Z,0
2017-06-04T00:02:50.494Z,0
2017-06-04T00:03:51.719Z,0
2017-06-04T00:04:52.972Z,0
2017-06-04T00:05:54.278Z,0
2017-06-04T00:06:55.526Z,0
2017-06-04T00:07:56.795Z,0
2017-06-04T00:08:58.057Z,0
2017-06-04T00:09:59.375Z,0
2017-06-04T00:11:00.685Z,0
2017-06-04T00:12:01.946Z,0
2017-06-04T00:13:03.197Z,0
2017-06-04T00:14:04.441Z,0
2017-06-04T00:15:05.740Z,0
2017-06-04T00:16:06.993Z,0
2017-06-04T00:17:08.272Z,0
2017-06-04T00:18:09.509Z,0
2017-06-04T00:19:10.746Z,0
2017-06-04T00:20:11.985Z,0
2017-06-04T00:21:13.224Z,0
2017-06-04T00:22:14.479Z,0
2017-06-04T00:23:15.721Z,0
2017-06-04T00:24:16.964Z,0
2017-06-04T00:25:18.200Z,0
2017-06-04T00:26:19.445Z,0
2017-06-04T00:27:20.735Z,0
2017-06-04T00:28:21.969Z,0
2017-06-04T00:29:23.226Z,0
2017-06-04T00:30:24.471Z,0
2017-06-04T00:31:25.705Z,0
2017-06-04T00:32:27.007Z,0
2017-06-04T00:33:28.227Z,0
2017-06-04T00:34:29.487Z,0
2017-06-04T00:35:30.761Z,0
2017-06-04T00:36:32.018Z,0
2017-06-04T00:37:33.263Z,0
2017-06-04T00:38:34.546Z,0
2017-06-04T00:39:35.768Z,0
2017-06-04T00:40:37.027Z,0
2017-06-04T00:41:38.263Z,0
2017-06-04T00:42:39.510Z,0
2017-06-04T00:43:40.776Z,0
2017-06-04T00:44:42.016Z,0
2017-06-04T00:45:43.282Z,0
2017-06-04T00:46:44.628Z,0
2017-06-04T00:47:45.897Z,0
2017-06-04T00:48:47.118Z,0
2017-06-04T00:49:48.471Z,0
2017-06-04T00:50:49.732Z,0
2017-06-04T00:51:50.969Z,0
2017-06-04T00:52:52.240Z,0
2017-06-04T00:53:53.581Z,0
2017-06-04T00:54:54.778Z,0
2017-06-04T00:55:56.027Z,0
2017-06-04T00:56:57.275Z,0
2017-06-04T00:57:58.521Z,0
2017-06-04T00:58:59.754Z,0
2017-06-04T01:00:00.993Z,0
2017-06-04T01:01:02.339Z,0
2017-06-04T01:02:03.582Z,0
2017-06-04T01:03:04.828Z,0
2017-06-04T01:04:06.088Z,0
2017-06-04T01:05:07.329Z,0
2017-06-04T01:06:08.687Z,0
2017-06-04T01:07:09.931Z,0
2017-06-04T01:08:11.180Z,0
2017-06-04T01:09:12.402Z,0
2017-06-04T01:10:13.641Z,0
2017-06-04T01:11:14.892Z,0
2017-06-04T01:12:16.140Z,0
2017-06-04T01:13:17.394Z,0
2017-06-04T01:14:18.668Z,0
2017-06-04T01:15:19.910Z,0
2017-06-04T01:16:21.146Z,0
2017-06-04T01:17:22.397Z,0
2017-06-04T01:18:23.649Z,0
2017-06-04T01:19:24.940Z,0
2017-06-04T01:20:26.180Z,0
2017-06-04T01:21:27.424Z,0
2017-06-04T01:22:28.674Z,0
2017-06-04T01:23:29.923Z,0
2017-06-04T01:24:31.170Z,0
2017-06-04T01:25:32.429Z,0
2017-06-04T01:26:33.709Z,0
2017-06-04T01:27:34.975Z,0
2017-06-04T01:28:36.222Z,0
2017-06-04T01:29:37.475Z,0
2017-06-04T01:30:38.718Z,0
2017-06-04T01:31:40.032Z,0
2017-06-04T01:32:41.252Z,0
2017-06-04T01:33:42.576Z,0
2017-06-04T01:34:43.806Z,0
2017-06-04T01:35:45.057Z,0
2017-06-04T01:36:46.350Z,0
2017-06-04T01:37:47.590Z,0
2017-06-04T01:38:48.947Z,0
2017-06-04T01:39:50.191Z,0
2017-06-04T01:40:51.435Z,0
2017-06-04T01:41:52.689Z,0
2017-06-04T01:42:53.939Z,0
2017-06-04T01:43:55.170Z,0
2017-06-04T01:44:56.454Z,0
2017-06-04T01:45:57.889Z,0
2017-06-04T01:46:59.174Z,0
2017-06-04T01:48:00.423Z,0
2017-06-04T01:49:01.662Z,0
2017-06-04T01:50:02.901Z,0
2017-06-04T01:51:04.219Z,0
2017-06-04T01:52:05.465Z,0
2017-06-04T01:53:06.705Z,0
2017-06-04T01:54:07.964Z,0
2017-06-04T01:55:09.205Z,0
2017-06-04T01:56:10.544Z,0
2017-06-04T01:57:11.797Z,0
2017-06-04T01:58:13.062Z,0
2017-06-04T01:59:14.325Z,0
2017-06-04T02:00:15.569Z,0
2017-06-04T02:01:16.799Z,0
2017-06-04T02:02:18.054Z,0
2017-06-04T02:03:19.287Z,0
2017-06-04T02:04:20.540Z,0
2017-06-04T02:05:21.777Z,0
2017-06-04T02:06:23.016Z,0
2017-06-04T02:07:24.268Z,0
2017-06-04T02:12:11.361Z,0
2017-06-04T02:13:12.544Z,0
2017-06-04T02:14:13.813Z,0
2017-06-04T02:15:15.092Z,0
2017-06-04T02:16:16.394Z,0
2017-06-04T02:17:17.646Z,0
2017-06-04T02:18:18.888Z,0
2017-06-04T02:19:20.142Z,0
2017-06-04T02:20:21.513Z,0
2017-06-04T02:21:22.765Z,0
2017-06-04T02:22:24.124Z,0
2017-06-04T02:23:25.373Z,0
2017-06-04T02:24:26.856Z,0
2017-06-04T02:25:28.193Z,0
2017-06-04T02:26:29.461Z,0
2017-06-04T02:27:30.683Z,0
2017-06-04T02:28:31.918Z,0
2017-06-04T02:29:33.159Z,0
2017-06-04T02:30:34.497Z,0
2017-06-04T02:31:35.740Z,0
2017-06-04T02:32:36.988Z,0
2017-06-04T02:33:38.303Z,0
2017-06-04T02:34:39.569Z,0
2017-06-04T02:35:40.804Z,0
2017-06-04T02:36:42.150Z,0
2017-06-04T02:37:43.405Z,0
2017-06-04T02:38:44.749Z,0
2017-06-04T02:39:46.005Z,0
2017-06-04T02:40:47.238Z,0
2017-06-04T02:41:48.495Z,0
2017-06-04T02:42:49.741Z,0
2017-06-04T02:43:51.058Z,0
2017-06-04T02:44:52.342Z,0
2017-06-04T02:45:53.620Z,0
2017-06-04T02:46:54.838Z,0
2017-06-04T02:47:56.098Z,0
2017-06-04T02:48:57.330Z,0
2017-06-04T02:49:58.575Z,0
2017-06-04T02:50:59.943Z,0
2017-06-04T02:52:01.192Z,0
2017-06-04T02:53:02.485Z,0
2017-06-04T02:54:03.773Z,0
2017-06-04T02:55:05.004Z,0
2017-06-04T02:56:06.243Z,0
2017-06-04T02:57:07.511Z,0
2017-06-04T02:58:08.747Z,0
2017-06-04T02:59:10.013Z,0
2017-06-04T03:00:11.269Z,0
2017-06-04T03:01:12.513Z,0
2017-06-04T03:02:13.763Z,0
2017-06-04T03:03:15.033Z,0
2017-06-04T03:04:16.293Z,0
2017-06-04T03:05:17.531Z,0
2017-06-04T03:06:18.771Z,0
2017-06-04T03:07:20.027Z,0
2017-06-04T03:08:21.318Z,0
2017-06-04T03:09:22.589Z,0
2017-06-04T03:10:23.836Z,0
2017-06-04T03:11:25.079Z,0
2017-06-04T03:12:26.318Z,0
2017-06-04T03:13:27.555Z,0
2017-06-04T03:14:28.850Z,0
2017-06-04T03:15:30.143Z,0
2017-06-04T03:16:31.401Z,0
2017-06-04T03:17:32.651Z,0
2017-06-04T03:18:33.912Z,0
2017-06-04T03:19:35.159Z,0
2017-06-04T03:20:36.384Z,5
2017-06-04T03:21:37.651Z,5
2017-06-04T03:22:39.056Z,5
2017-06-04T03:23:40.471Z,5
2017-06-04T03:24:41.703Z,5
2017-06-04T03:25:42.949Z,5
2017-06-04T03:26:44.221Z,5
2017-06-04T03:27:45.449Z,5
2017-06-04T03:28:46.750Z,10
2017-06-04T03:29:47.993Z,10
2017-06-04T03:30:49.239Z,10
2017-06-04T03:31:50.477Z,10
2017-06-04T03:32:51.797Z,10
2017-06-04T03:33:53.134Z,10
2017-06-04T03:34:54.427Z,10
2017-06-04T03:35:55.664Z,10
2017-06-04T03:36:56.912Z,15
2017-06-04T03:37:58.221Z,15
2017-06-04T03:38:59.460Z,15
2017-06-04T03:40:00.920Z,15
2017-06-04T03:41:02.178Z,15
2017-06-04T03:42:03.430Z,15
2017-06-04T03:43:04.684Z,15
2017-06-04T03:44:06.025Z,15
2017-06-04T03:45:07.263Z,15
2017-06-04T03:46:08.612Z,20
2017-06-04T03:47:09.881Z,20
2017-06-04T03:48:11.130Z,20
2017-06-04T03:49:12.379Z,20
2017-06-04T03:50:13.628Z,20
2017-06-04T03:51:14.870Z,20
2017-06-04T03:52:16.129Z,25
2017-06-04T03:53:17.390Z,25
2017-06-04T03:54:18.664Z,25
2017-06-04T03:55:19.916Z,25
2017-06-04T03:56:21.162Z,25
2017-06-04T03:57:22.427Z,25
2017-06-04T03:58:23.670Z,25
2017-06-04T03:59:24.910Z,30
2017-06-04T04:00:26.190Z,30
2017-06-04T04:01:27.411Z,30
2017-06-04T04:02:28.767Z,30
2017-06-04T04:03:30.004Z,30
2017-06-04T04:04:31.242Z,35
2017-06-04T04:05:32.521Z,35
2017-06-04T04:06:33.742Z,35
2017-06-04T04:07:34.991Z,35
2017-06-04T04:08:36.296Z,35
2017-06-04T04:09:37.553Z,35
2017-06-04T04:10:38.804Z,40
2017-06-04T04:11:40.195Z,40
2017-06-04T04:12:41.428Z,40
2017-06-04T04:13:42.673Z,45
2017-06-04T04:14:43.906Z,45
2017-06-04T04:15:45.152Z,50
2017-06-04T04:16:46.399Z,50
2017-06-04T04:17:47.621Z,55
2017-06-04T04:18:48.874Z,55
2017-06-04T04:19:50.125Z,60
2017-06-04T04:20:51.375Z,60
2017-06-04T04:21:52.715Z,60
2017-06-04T04:22:53.973Z,60
2017-06-04T04:23:55.212Z,65
2017-06-04T04:24:56.553Z,65
2017-06-04T04:25:57.798Z,70
2017-06-04T04:26:59.052Z,70
2017-06-04T04:28:00.293Z,70
2017-06-04T04:29:01.553Z,70
2017-06-04T04:30:02.968Z,70
2017-06-04T04:31:04.225Z,75
2017-06-04T04:32:05.467Z,75
2017-06-04T04:33:06.703Z,75
2017-06-04T04:34:08.050Z,75
2017-06-04T04:35:09.363Z,75
2017-06-04T04:36:10.610Z,75
2017-06-04T04:37:11.847Z,75
2017-06-04T04:38:13.092Z,80
2017-06-04T04:39:14.455Z,80
2017-06-04T04:40:15.794Z,85
2017-06-04T04:41:17.079Z,85
2017-06-04T04:42:18.318Z,90
2017-06-04T04:43:19.554Z,90
2017-06-04T04:44:20.830Z,95
2017-06-04T04:45:22.174Z,95
2017-06-04T04:46:23.330Z,95
2017-06-04T04:47:24.583Z,100
2017-06-04T04:48:25.826Z,100
2017-06-04T04:49:27.107Z,100
2017-06-04T04:50:28.352Z,105
2017-06-04T04:51:29.625Z,105
2017-06-04T04:52:30.940Z,105
2017-06-04T04:53:32.189Z,105
2017-06-04T04:54:33.431Z,105
2017-06-04T04:55:34.675Z,110
2017-06-04T04:56:35.912Z,110
2017-06-04T04:57:37.163Z,110
2017-06-04T04:58:38.461Z,110
2017-06-04T04:59:39.710Z,115
2017-06-04T05:00:41.000Z,115
2017-06-04T05:01:42.329Z,115
2017-06-04T05:02:43.565Z,115
2017-06-04T05:03:44.820Z,115
2017-06-04T05:04:46.121Z,120
2017-06-04T05:05:47.361Z,120
2017-06-04T05:06:48.621Z,120
2017-06-04T05:07:49.873Z,120
2017-06-04T05:08:51.121Z,125
2017-06-04T05:09:52.364Z,130
2017-06-04T05:10:53.665Z,130
2017-06-04T05:11:54.908Z,135
2017-06-04T05:12:56.203Z,140
2017-06-04T05:13:57.444Z,145
2017-06-04T05:14:58.773Z,150
2017-06-04T05:16:00.008Z,150
2017-06-04T05:17:01.281Z,155
2017-06-04T05:18:02.563Z,160
2017-06-04T05:19:03.812Z,170
2017-06-04T05:20:05.048Z,175
2017-06-04T05:21:06.287Z,175
2017-06-04T05:22:07.536Z,180
2017-06-04T05:23:08.775Z,190
2017-06-04T05:24:10.019Z,195
2017-06-04T05:25:11.265Z,200
2017-06-04T05:26:12.764Z,205
2017-06-04T05:27:14.029Z,210
2017-06-04T05:28:15.265Z,215
2017-06-04T05:29:16.516Z,220
2017-06-04T05:30:17.821Z,220
2017-06-04T05:31:19.061Z,225
2017-06-04T05:32:20.349Z,230
2017-06-04T05:33:21.585Z,230
2017-06-04T05:34:22.842Z,235
2017-06-04T05:35:24.210Z,240
2017-06-04T05:36:25.368Z,240
2017-06-04T05:37:26.685Z,245
2017-06-04T05:38:27.922Z,245
2017-06-04T05:39:29.165Z,250
2017-06-04T05:40:30.419Z,250
2017-06-04T05:41:31.682Z,255
2017-06-04T05:42:32.967Z,265
2017-06-04T05:43:34.242Z,280
2017-06-04T05:44:35.478Z,290
2017-06-04T05:45:36.785Z,295
2017-06-04T05:46:38.004Z,310
2017-06-04T05:47:39.245Z,315
2017-06-04T05:48:40.496Z,325
2017-06-04T05:49:41.726Z,335
2017-06-04T05:50:42.979Z,340
2017-06-04T05:51:44.245Z,340
2017-06-04T05:52:45.477Z,340
2017-06-04T05:53:46.720Z,345
2017-06-04T05:54:47.946Z,335
2017-06-04T05:55:49.193Z,335
2017-06-04T05:56:50.611Z,335
2017-06-04T05:57:51.851Z,340
2017-06-04T05:58:53.132Z,345
2017-06-04T05:59:54.367Z,345
2017-06-04T06:00:55.599Z,345
2017-06-04T06:01:56.854Z,340
2017-06-04T06:02:58.117Z,335
2017-06-04T06:03:59.368Z,330
2017-06-04T06:05:00.631Z,330
2017-06-04T06:06:01.874Z,325
2017-06-04T06:07:03.112Z,320
2017-06-04T06:08:04.368Z,320
2017-06-04T06:09:05.786Z,315
2017-06-04T06:10:07.016Z,315
2017-06-04T06:11:08.285Z,310
2017-06-04T06:12:09.515Z,310
2017-06-04T06:13:10.868Z,310
2017-06-04T06:14:12.115Z,295
2017-06-04T06:15:13.362Z,310
2017-06-04T06:16:14.773Z,320
2017-06-04T06:17:16.022Z,330
2017-06-04T06:18:17.254Z,330
2017-06-04T06:19:18.728Z,345
2017-06-04T06:20:20.109Z,360
2017-06-04T06:21:21.381Z,365
2017-06-04T06:22:22.620Z,375
2017-06-04T06:23:23.868Z,380
2017-06-04T06:24:25.113Z,375
2017-06-04T06:25:26.390Z,375
2017-06-04T06:26:27.642Z,385
2017-06-04T06:27:28.894Z,380
2017-06-04T06:28:30.191Z,400
2017-06-04T06:29:31.413Z,425
2017-06-04T06:30:32.656Z,445
2017-06-04T06:31:34.068Z,465
2017-06-04T06:32:35.235Z,480
2017-06-04T06:33:36.548Z,500
2017-06-04T06:34:37.823Z,530
2017-06-04T06:35:39.036Z,550
2017-06-04T06:36:40.291Z,575
2017-06-04T06:37:41.535Z,585
2017-06-04T06:38:42.813Z,600
2017-06-04T06:39:44.136Z,605
2017-06-04T06:40:45.387Z,630
2017-06-04T06:41:46.678Z,630
2017-06-04T06:42:47.987Z,625
2017-06-04T06:43:49.238Z,630
2017-06-04T06:44:50.473Z,690
2017-06-04T06:45:51.712Z,720
2017-06-04T06:46:52.969Z,730
2017-06-04T06:47:54.223Z,775
2017-06-04T06:48:55.469Z,810
2017-06-04T06:49:56.819Z,830
2017-06-04T06:50:58.065Z,785
2017-06-04T06:51:59.467Z,745
2017-06-04T06:53:00.711Z,745
2017-06-04T06:54:01.952Z,715
2017-06-04T06:55:03.221Z,690
2017-06-04T06:56:04.614Z,800
2017-06-04T06:57:05.934Z,825
2017-06-04T06:58:07.357Z,890
2017-06-04T06:59:08.737Z,945
2017-06-04T07:00:09.983Z,820
2017-06-04T07:01:11.491Z,875
2017-06-04T07:02:12.846Z,930
2017-06-04T07:03:14.105Z,940
2017-06-04T07:04:15.353Z,915
2017-06-04T07:05:16.610Z,955
2017-06-04T07:06:17.860Z,960
2017-06-04T07:07:19.102Z,965
2017-06-04T07:08:20.384Z,960
2017-06-04T07:09:21.634Z,1015
2017-06-04T07:10:22.891Z,1070
2017-06-04T07:11:24.133Z,1125
2017-06-04T07:12:25.369Z,1185
2017-06-04T07:13:26.650Z,1250
2017-06-04T07:14:27.979Z,1300
2017-06-04T07:15:29.234Z,1405
2017-06-04T07:16:30.499Z,1600
2017-06-04T07:17:31.725Z,1635
2017-06-04T07:18:32.995Z,1665
2017-06-04T07:19:34.239Z,1490
2017-06-04T07:20:35.613Z,1405
2017-06-04T07:21:36.858Z,1415
2017-06-04T07:22:38.104Z,1495
2017-06-04T07:23:39.368Z,1480
2017-06-04T07:24:40.681Z,1665
2017-06-04T07:25:41.960Z,1555
2017-06-04T07:26:43.248Z,1460
2017-06-04T07:27:44.610Z,1630
2017-06-04T07:28:45.847Z,1645
2017-06-04T07:29:47.128Z,1785
2017-06-04T07:30:48.581Z,1730
2017-06-04T07:31:49.865Z,1665
2017-06-04T07:32:51.119Z,1835
2017-06-04T07:33:52.373Z,1835
2017-06-04T07:34:53.658Z,1770
2017-06-04T07:35:54.942Z,1630
2017-06-04T07:36:56.200Z,1730
2017-06-04T07:37:57.489Z,2025
2017-06-04T07:38:58.732Z,2170
2017-06-04T07:39:59.987Z,2115
2017-06-04T07:41:01.251Z,1955
2017-06-04T07:42:02.602Z,2105
2017-06-04T07:43:03.862Z,1925
2017-06-04T07:44:05.118Z,1655
2017-06-04T07:45:06.424Z,1725
2017-06-04T07:46:07.678Z,1870
2017-06-04T07:47:08.922Z,1780
2017-06-04T07:48:10.193Z,1705
2017-06-04T07:49:11.497Z,1745
2017-06-04T07:50:12.767Z,1855
2017-06-04T07:51:14.072Z,1725
2017-06-04T07:52:15.254Z,1725
2017-06-04T07:53:16.566Z,2160
2017-06-04T07:54:17.767Z,2015
2017-06-04T07:55:19.030Z,2100
2017-06-04T07:56:20.283Z,2375
2017-06-04T07:57:21.538Z,2520
2017-06-04T07:58:22.827Z,2455
2017-06-04T07:59:24.050Z,1945
2017-06-04T08:00:25.313Z,1880
2017-06-04T08:01:26.566Z,1520
2017-06-04T08:02:27.889Z,1685
2017-06-04T08:03:29.116Z,1835
2017-06-04T08:04:30.391Z,1885
2017-06-04T08:05:31.637Z,2055
2017-06-04T08:06:32.913Z,2355
2017-06-04T08:07:34.173Z,2225
2017-06-04T08:08:35.474Z,910
2017-06-04T08:09:36.830Z,2685
2017-06-04T08:10:38.085Z,2820
2017-06-04T08:11:39.336Z,2645
2017-06-04T08:12:40.595Z,2465
2017-06-04T08:13:41.873Z,2235
2017-06-04T08:14:43.222Z,1805
2017-06-04T08:15:44.485Z,2160
2017-06-04T08:16:45.756Z,975
2017-06-04T08:17:46.981Z,2950
2017-06-04T08:18:48.276Z,880
2017-06-04T08:19:49.512Z,2550
2017-06-04T08:20:50.828Z,2530
2017-06-04T08:21:52.089Z,2540
2017-06-04T08:22:53.382Z,2455
2017-06-04T08:23:54.646Z,2180
2017-06-04T08:24:56.026Z,2830
2017-06-04T08:25:57.213Z,2875
2017-06-04T08:26:58.470Z,3000
2017-06-04T08:27:59.719Z,685
2017-06-04T08:29:01.008Z,675
2017-06-04T08:30:02.290Z,3095
2017-06-04T08:31:03.574Z,3140
2017-06-04T08:32:04.885Z,2525
2017-06-04T08:33:06.148Z,3265
2017-06-04T08:34:07.403Z,3355
2017-06-04T08:35:08.702Z,3475
2017-06-04T08:36:09.971Z,3495
2017-06-04T08:37:11.388Z,3195
2017-06-04T08:38:12.652Z,1940
2017-06-04T08:39:13.912Z,3640
2017-06-04T08:40:15.171Z,2945
2017-06-04T08:41:16.505Z,3550
2017-06-04T08:42:17.673Z,3615
2017-06-04T08:43:18.935Z,3435
2017-06-04T08:44:20.199Z,3580
2017-06-04T08:45:21.454Z,3365
2017-06-04T08:46:22.801Z,1590
2017-06-04T08:47:24.084Z,3570
2017-06-04T08:48:25.337Z,1250
2017-06-04T08:49:26.600Z,1515
2017-06-04T08:50:27.941Z,945
2017-06-04T08:51:29.242Z,3460
2017-06-04T08:52:30.494Z,3570
2017-06-04T08:53:31.759Z,3440
2017-06-04T08:54:33.034Z,3455
2017-06-04T08:55:34.312Z,2485
2017-06-04T08:56:35.658Z,590
2017-06-04T08:57:36.958Z,445
2017-06-04T08:58:38.220Z,400
2017-06-04T08:59:39.479Z,415
2017-06-04T09:00:40.840Z,1135
2017-06-04T09:01:42.116Z,1550
2017-06-04T09:02:43.375Z,3730
2017-06-04T09:03:44.653Z,3655
2017-06-04T09:04:45.914Z,3595
2017-06-04T09:05:47.181Z,3800
2017-06-04T09:06:48.433Z,3780
2017-06-04T09:07:49.692Z,1055
2017-06-04T09:08:50.992Z,1780
2017-06-04T09:09:52.339Z,750
2017-06-04T09:10:53.595Z,635
2017-06-04T09:11:54.957Z,715
2017-06-04T09:12:56.320Z,4085
2017-06-04T09:13:57.525Z,3955
2017-06-04T09:14:58.776Z,3885
2017-06-04T09:16:00.041Z,3705
2017-06-04T09:17:01.302Z,665
2017-06-04T09:18:02.579Z,470
2017-06-04T09:19:03.840Z,410
2017-06-04T09:20:05.144Z,485
2017-06-04T09:21:06.412Z,2490
2017-06-04T09:22:07.692Z,3910
2017-06-04T09:23:08.934Z,3880
2017-06-04T09:24:10.195Z,3675
2017-06-04T09:25:11.432Z,1780
2017-06-04T09:26:12.707Z,1920
2017-06-04T09:27:13.971Z,730
2017-06-04T09:28:15.255Z,585
2017-06-04T09:29:16.511Z,4005
2017-06-04T09:30:17.799Z,3155
2017-06-04T09:31:19.067Z,4145
2017-06-04T09:32:20.336Z,1605
2017-06-04T09:33:21.698Z,4040
2017-06-04T09:34:23.082Z,4125
2017-06-04T09:35:24.356Z,4220
2017-06-04T09:36:25.597Z,2105
2017-06-04T09:37:26.860Z,4185
2017-06-04T09:38:28.155Z,4215
2017-06-04T09:39:29.422Z,4050
2017-06-04T09:40:30.678Z,4080
2017-06-04T09:41:31.941Z,3860
2017-06-04T09:42:33.197Z,3830
2017-06-04T09:43:34.564Z,3655
2017-06-04T09:44:35.822Z,4460
2017-06-04T09:45:37.175Z,670
2017-06-04T09:46:38.415Z,535
2017-06-04T09:47:39.690Z,530
2017-06-04T09:48:41.058Z,765
2017-06-04T09:49:42.382Z,4140
2017-06-04T09:50:43.655Z,2790
2017-06-04T09:51:44.977Z,825
2017-06-04T09:52:46.216Z,745
2017-06-04T09:53:47.477Z,590
2017-06-04T09:54:48.786Z,600
2017-06-04T09:55:50.063Z,975
2017-06-04T09:56:51.428Z,4140
2017-06-04T09:57:52.681Z,3165
2017-06-04T09:58:53.943Z,1165
2017-06-04T09:59:55.224Z,730
2017-06-04T10:00:56.476Z,4035
2017-06-04T10:01:57.743Z,4175
2017-06-04T10:02:59.016Z,4325
2017-06-04T10:04:00.267Z,4150
2017-06-04T10:05:01.559Z,1010
2017-06-04T10:06:02.883Z,605
2017-06-04T10:07:04.383Z,480
2017-06-04T10:08:05.661Z,520
2017-06-04T10:09:07.049Z,525
2017-06-04T10:10:08.333Z,1780
2017-06-04T10:11:09.586Z,3225
2017-06-04T10:12:10.849Z,3410
2017-06-04T10:13:12.155Z,900
2017-06-04T10:14:13.419Z,635
2017-06-04T10:15:14.694Z,540
2017-06-04T10:16:15.961Z,485
2017-06-04T10:17:17.277Z,1270
2017-06-04T10:18:18.521Z,530
2017-06-04T10:19:19.781Z,470
2017-06-04T10:20:21.126Z,395
2017-06-04T10:21:22.370Z,380
2017-06-04T10:22:23.629Z,460
2017-06-04T10:23:24.908Z,735
2017-06-04T10:24:26.176Z,2930
2017-06-04T10:25:27.540Z,2590
2017-06-04T10:26:28.796Z,2870
2017-06-04T10:27:30.069Z,2950
2017-06-04T10:28:31.350Z,3010
2017-06-04T10:29:32.668Z,3000
2017-06-04T10:30:33.915Z,3150
2017-06-04T10:31:35.219Z,2875
2017-06-04T10:32:36.469Z,1885
2017-06-04T10:33:37.735Z,670
2017-06-04T10:34:39.006Z,485
2017-06-04T10:35:40.262Z,460
2017-06-04T10:36:41.540Z,465
2017-06-04T10:37:42.853Z,470
2017-06-04T10:38:44.110Z,470
2017-06-04T10:39:45.357Z,470
2017-06-04T10:40:46.620Z,470
2017-06-04T10:41:47.922Z,475
2017-06-04T10:42:49.150Z,480
2017-06-04T10:43:50.407Z,480
2017-06-04T10:44:51.661Z,485
2017-06-04T10:45:52.915Z,505
2017-06-04T10:46:54.197Z,550
2017-06-04T10:47:55.463Z,560
2017-06-04T10:48:56.774Z,540
2017-06-04T10:49:58.020Z,615
2017-06-04T10:50:59.278Z,700
2017-06-04T10:52:00.653Z,695
2017-06-04T10:53:01.815Z,665
2017-06-04T10:54:03.160Z,675
2017-06-04T10:55:04.408Z,570
2017-06-04T10:56:05.683Z,595
2017-06-04T10:57:06.956Z,670
2017-06-04T10:58:08.222Z,580
2017-06-04T10:59:09.495Z,615
2017-06-04T11:00:10.738Z,570
2017-06-04T11:01:12.007Z,625
2017-06-04T11:02:13.271Z,635
2017-06-04T11:03:14.533Z,675
2017-06-04T11:04:15.794Z,660
2017-06-04T11:05:17.053Z,600
2017-06-04T11:06:18.324Z,605
2017-06-04T11:07:19.569Z,630
2017-06-04T11:08:20.830Z,655
2017-06-04T11:09:22.079Z,685
2017-06-04T11:10:23.334Z,750
2017-06-04T11:11:24.621Z,705
2017-06-04T11:12:25.870Z,660
2017-06-04T11:13:27.245Z,745
2017-06-04T11:14:28.499Z,755
2017-06-04T11:15:29.756Z,630
2017-06-04T11:16:31.020Z,550
2017-06-04T11:17:32.260Z,515
2017-06-04T11:18:33.522Z,550
2017-06-04T11:19:34.895Z,690
2017-06-04T11:20:36.145Z,740
2017-06-04T11:21:37.401Z,720
2017-06-04T11:22:38.807Z,705
2017-06-04T11:23:40.014Z,715
2017-06-04T11:24:41.274Z,715
2017-06-04T11:25:42.680Z,695
2017-06-04T11:26:43.926Z,675
2017-06-04T11:27:45.194Z,590
2017-06-04T11:28:46.457Z,545
2017-06-04T11:29:47.701Z,520
2017-06-04T11:30:49.024Z,520
2017-06-04T11:31:50.289Z,480
2017-06-04T11:32:51.562Z,480
2017-06-04T11:33:52.834Z,500
2017-06-04T11:34:54.089Z,520
2017-06-04T11:35:55.354Z,515
2017-06-04T11:36:56.597Z,480
2017-06-04T11:37:57.856Z,445
2017-06-04T11:38:59.129Z,405
2017-06-04T11:40:00.383Z,385
2017-06-04T11:41:01.636Z,355
2017-06-04T11:42:02.984Z,315
2017-06-04T11:43:04.393Z,280
2017-06-04T11:44:05.636Z,265
2017-06-04T11:45:06.942Z,285
2017-06-04T11:46:08.210Z,305
2017-06-04T11:47:09.453Z,285
2017-06-04T11:48:10.772Z,240
2017-06-04T11:49:12.056Z,220
2017-06-04T11:50:13.312Z,200
2017-06-04T11:51:14.550Z,175
2017-06-04T11:52:15.806Z,160
2017-06-04T11:53:17.133Z,145
2017-06-04T11:54:18.378Z,130
2017-06-04T11:55:19.645Z,120
2017-06-04T11:56:20.922Z,110
2017-06-04T11:57:22.191Z,105
2017-06-04T11:58:23.450Z,95
2017-06-04T11:59:24.701Z,95
2017-06-04T12:00:26.108Z,90
2017-06-04T12:01:27.285Z,90
2017-06-04T12:02:28.537Z,85
2017-06-04T12:03:29.785Z,90
2017-06-04T12:04:31.035Z,105
2017-06-04T12:05:32.316Z,125
2017-06-04T12:06:33.644Z,155
2017-06-04T12:07:34.905Z,185
2017-06-04T12:08:36.149Z,220
2017-06-04T12:09:37.401Z,255
2017-06-04T12:10:38.683Z,275
2017-06-04T12:11:39.916Z,285
2017-06-04T12:12:41.171Z,335
2017-06-04T12:13:42.438Z,400
2017-06-04T12:14:43.725Z,515
2017-06-04T12:15:45.081Z,685
2017-06-04T12:16:46.323Z,700
2017-06-04T12:17:47.590Z,725
2017-06-04T12:18:48.899Z,685
2017-06-04T12:19:50.107Z,655
2017-06-04T12:20:51.349Z,660
2017-06-04T12:21:52.636Z,645
2017-06-04T12:22:53.887Z,605
2017-06-04T12:23:55.220Z,595
2017-06-04T12:24:56.565Z,600
2017-06-04T12:25:57.838Z,580
2017-06-04T12:26:59.105Z,565
2017-06-04T12:28:00.351Z,530
2017-06-04T12:29:01.611Z,555
2017-06-04T12:30:02.849Z,595
2017-06-04T12:31:04.120Z,605
2017-06-04T12:32:05.358Z,585
2017-06-04T12:33:06.605Z,605
2017-06-04T12:34:07.858Z,605
2017-06-04T12:35:09.106Z,575
2017-06-04T12:36:10.385Z,575
2017-06-04T12:37:11.621Z,615
2017-06-04T12:38:12.997Z,650
2017-06-04T12:39:14.240Z,650
2017-06-04T12:40:15.489Z,675
2017-06-04T12:41:16.877Z,645
2017-06-04T12:42:18.026Z,675
2017-06-04T12:43:19.375Z,755
2017-06-04T12:44:20.622Z,725
2017-06-04T12:45:21.874Z,625
2017-06-04T12:46:23.130Z,585
2017-06-04T12:47:24.380Z,545
2017-06-04T12:48:25.637Z,535
2017-06-04T12:49:26.950Z,560
2017-06-04T12:50:28.199Z,570
2017-06-04T12:51:29.478Z,560
2017-06-04T12:52:30.744Z,550
2017-06-04T12:53:32.004Z,580
2017-06-04T12:54:33.275Z,625
2017-06-04T12:55:34.524Z,630
2017-06-04T12:56:35.760Z,620
2017-06-04T12:57:37.036Z,595
2017-06-04T12:58:38.283Z,615
2017-06-04T12:59:39.546Z,645
2017-06-04T13:00:40.826Z,665
2017-06-04T13:01:42.048Z,660
2017-06-04T13:02:43.301Z,675
2017-06-04T13:03:44.672Z,700
2017-06-04T13:04:45.921Z,695
2017-06-04T13:05:47.174Z,675
2017-06-04T13:06:48.455Z,655
2017-06-04T13:07:49.688Z,630
2017-06-04T13:08:50.947Z,560
2017-06-04T13:09:52.206Z,520
2017-06-04T13:10:53.453Z,480
2017-06-04T13:11:54.706Z,460
2017-06-04T13:12:55.995Z,430
2017-06-04T13:13:57.286Z,390
2017-06-04T13:14:58.555Z,375
2017-06-04T13:15:59.818Z,355
2017-06-04T13:17:01.067Z,305
2017-06-04T13:18:02.311Z,275
2017-06-04T13:19:03.558Z,275
2017-06-04T13:20:04.819Z,265
2017-06-04T13:21:06.077Z,260
2017-06-04T13:22:07.415Z,250
2017-06-04T13:23:08.665Z,230
2017-06-04T13:24:09.929Z,215
2017-06-04T13:25:11.185Z,195
2017-06-04T13:26:12.613Z,180
2017-06-04T13:27:13.882Z,190
2017-06-04T13:28:15.201Z,205
2017-06-04T13:29:16.444Z,210
2017-06-04T13:30:17.693Z,225
2017-06-04T13:31:18.938Z,200
2017-06-04T13:32:20.197Z,175
2017-06-04T13:33:21.455Z,160
2017-06-04T13:34:22.833Z,140
2017-06-04T13:35:24.086Z,115
2017-06-04T13:36:25.319Z,110
2017-06-04T13:37:26.643Z,130
2017-06-04T13:38:27.847Z,180
2017-06-04T13:39:29.076Z,240
2017-06-04T13:40:30.383Z,285
2017-06-04T13:41:31.638Z,325
2017-06-04T13:42:32.894Z,390
2017-06-04T13:43:34.120Z,475
2017-06-04T13:44:35.371Z,535
2017-06-04T13:45:36.630Z,560
2017-06-04T13:46:37.887Z,585
2017-06-04T13:47:39.137Z,595
2017-06-04T13:48:40.384Z,615
2017-06-04T13:49:41.630Z,615
2017-06-04T13:50:42.887Z,580
2017-06-04T13:51:44.134Z,560
2017-06-04T13:52:45.381Z,550
2017-06-04T13:53:46.650Z,560
2017-06-04T13:54:47.918Z,560
2017-06-04T13:55:49.231Z,585
2017-06-04T13:56:50.536Z,610
2017-06-04T13:57:51.689Z,605
2017-06-04T13:58:52.946Z,615
2017-06-04T13:59:54.209Z,635
2017-06-04T14:00:55.444Z,645
2017-06-04T14:01:56.705Z,645
2017-06-04T14:02:57.950Z,655
2017-06-04T14:03:59.199Z,665
2017-06-04T14:05:00.500Z,640
2017-06-04T14:06:01.753Z,625
2017-06-04T14:07:02.998Z,610
2017-06-04T14:08:04.297Z,630
2017-06-04T14:09:05.519Z,620
2017-06-04T14:10:06.788Z,605
2017-06-04T14:11:08.088Z,590
2017-06-04T14:12:09.410Z,585
2017-06-04T14:13:10.655Z,615
2017-06-04T14:14:11.892Z,585
2017-06-04T14:15:13.144Z,525
2017-06-04T14:16:14.451Z,470
2017-06-04T14:17:15.774Z,435
2017-06-04T14:18:17.041Z,430
2017-06-04T14:19:18.262Z,435